Time;durP1;ratioP1;P1;durP2;ratioP2;P2;SDS_P1;SDS_P2;PMS_P1;PMS_P2;Temp;Humidity;BMP_temperature;BMP_pressure;BME280_temperature;BME280_humidity;BME280_pressure;Samples;Min_cycle;Max_cycle;Signal;HPM_P1;HPM_P2
2021/04/11 00:02:34;;;;;;;0.70;0.70;;;;;;;14.04;46.35;93630.53;5003656;28;20029;-56
2021/04/11 00:05:06;;;;;;;0.60;0.60;;;;;;;14.02;46.46;93623.63;5005068;28;20056;-56
2021/04/11 00:07:32;;;;;;;0.50;0.50;;;;;;;14.04;46.63;93620.00;5019507;28;20117;-56
2021/04/11 00:09:57;;;;;;;0.45;0.45;;;;;;;14.03;46.71;93632.31;5054097;28;20029;-54
2021/04/11 00:12:23;;;;;;;0.45;0.45;;;;;;;14.05;46.74;93632.13;5022188;28;20063;-55
2021/04/11 00:15:08;;;;;;;0.82;0.65;;;;;;;14.04;46.48;93625.25;5034931;28;20025;-56
2021/04/11 00:17:36;;;;;;;0.40;0.40;;;;;;;14.04;46.48;93620.00;5021820;28;20037;-56
2021/04/11 00:20:02;;;;;;;0.60;0.60;;;;;;;14.04;46.77;93614.75;5035744;28;20025;-55
2021/04/11 00:22:29;;;;;;;1.58;0.90;;;;;;;14.03;46.63;93616.53;5026647;28;20036;-52
2021/04/11 00:25:00;;;;;;;0.70;0.60;;;;;;;14.04;46.68;93609.47;5038865;28;20119;-56
2021/04/11 00:27:34;;;;;;;0.40;0.40;;;;;;;14.04;46.54;93615.53;5021629;28;20028;-56
2021/04/11 00:30:11;;;;;;;0.50;0.50;;;;;;;14.04;46.84;93609.47;5039097;28;20029;-56
2021/04/11 00:32:43;;;;;;;0.65;0.65;;;;;;;14.04;46.19;93609.47;5028814;28;20025;-56
2021/04/11 00:35:15;;;;;;;0.60;0.60;;;;;;;14.04;46.68;93617.38;5002647;28;20021;-55
2021/04/11 00:38:10;;;;;;;0.50;0.50;;;;;;;14.03;46.77;93616.53;5019285;28;20026;-55
2021/04/11 00:40:44;;;;;;;1.05;0.43;;;;;;;14.03;46.67;93608.66;4982350;28;20092;-55
2021/04/11 00:43:12;;;;;;;0.47;0.47;;;;;;;14.04;46.67;93604.22;4981149;28;20041;-55
2021/04/11 00:46:01;;;;;;;0.50;0.50;;;;;;;14.02;46.63;93599.97;4997496;28;20116;-56
2021/04/11 00:48:37;;;;;;;0.70;0.60;;;;;;;14.04;46.72;93598.97;4983349;28;20116;-56
2021/04/11 00:51:11;;;;;;;0.60;0.60;;;;;;;14.04;46.62;93598.97;4981217;28;20041;-56
2021/04/11 00:53:46;;;;;;;0.60;0.60;;;;;;;14.02;46.50;93591.28;4982296;28;20060;-54
2021/04/11 00:56:13;;;;;;;0.65;0.60;;;;;;;14.04;46.59;93596.31;4997546;28;20033;-55
2021/04/11 00:58:52;;;;;;;0.65;0.65;;;;;;;14.03;46.67;93587.59;4981330;28;20041;-54
2021/04/11 01:01:19;;;;;;;0.63;0.52;;;;;;;14.04;46.80;93589.22;4977513;28;20041;-54
2021/04/11 01:03:45;;;;;;;0.95;0.52;;;;;;;14.04;46.35;93593.69;4964144;28;20038;-55
2021/04/11 01:06:18;;;;;;;0.60;0.60;;;;;;;14.04;46.63;93591.06;4992934;28;20042;-52
2021/04/11 01:08:43;;;;;;;0.70;0.70;;;;;;;14.04;46.27;93585.81;5005746;28;20143;-52
2021/04/11 01:11:09;;;;;;;0.43;0.43;;;;;;;14.04;46.75;93583.19;4962970;28;20549;-54
2021/04/11 01:13:39;;;;;;;0.30;0.30;;;;;;;14.03;46.17;93584.97;4994813;28;20496;-55
2021/04/11 01:16:05;;;;;;;0.50;0.50;;;;;;;14.04;46.46;93583.19;5010911;28;20030;-56
2021/04/11 01:18:31;;;;;;;0.40;0.40;;;;;;;14.02;46.39;93576.28;5019454;28;20040;-54
2021/04/11 01:21:40;;;;;;;0.50;0.50;;;;;;;14.02;46.36;93573.66;5030423;28;20062;-56
2021/04/11 01:24:22;;;;;;;;;;;;;;;14.02;46.47;93571.03;5032993;28;20033;-55
2021/04/11 01:26:49;;;;;;;0.60;0.60;;;;;;;14.04;46.25;93572.66;5032328;28;20473;-55
2021/04/11 01:29:15;;;;;;;0.50;0.50;;;;;;;14.04;46.27;93570.03;5013270;28;20040;-56
2021/04/11 01:31:45;;;;;;;0.38;0.38;;;;;;;14.02;46.72;93571.03;4999848;28;20029;-56
2021/04/11 01:34:12;;;;;;;0.50;0.50;;;;;;;14.02;46.57;93571.03;5029748;28;20480;-55
2021/04/11 01:36:42;;;;;;;0.40;0.40;;;;;;;14.04;46.48;93568.19;4980451;28;20468;-54
2021/04/11 01:39:15;;;;;;;0.57;0.50;;;;;;;14.03;46.23;93566.56;4997540;28;20035;-54
2021/04/11 01:41:42;;;;;;;0.50;0.50;;;;;;;14.04;46.39;93567.41;5015829;28;20041;-52
2021/04/11 01:44:24;;;;;;;0.68;0.65;;;;;;;14.02;46.33;93565.78;4999929;28;20169;-56
2021/04/11 01:47:01;;;;;;;1.15;0.63;;;;;;;14.04;46.69;93562.13;5000039;28;20037;-56
2021/04/11 01:49:28;;;;;;;0.52;0.52;;;;;;;14.02;46.67;93557.88;4981989;28;20029;-56
2021/04/11 01:51:58;;;;;;;0.50;0.50;;;;;;;14.02;46.32;93552.63;5015781;28;20563;-55
2021/04/11 01:54:25;;;;;;;0.50;0.50;;;;;;;14.03;46.36;93550.78;5016300;28;20139;-56
2021/04/11 01:56:51;;;;;;;0.40;0.40;;;;;;;14.02;46.38;93544.72;5015820;28;20848;-56
2021/04/11 01:59:18;;;;;;;0.40;0.40;;;;;;;14.03;46.09;93553.41;5021526;28;20042;-55
2021/04/11 02:01:50;;;;;;;0.35;0.35;;;;;;;14.02;46.35;93551.81;5008615;28;20029;-55
2021/04/11 02:04:21;;;;;;;0.63;0.60;;;;;;;14.02;46.53;93541.31;5000839;28;20064;-55
2021/04/11 02:06:49;;;;;;;1.05;0.50;;;;;;;14.02;46.53;93544.72;5034056;28;20022;-55
2021/04/11 02:09:17;;;;;;;0.60;0.60;;;;;;;14.04;46.32;93548.97;5001495;28;20033;-55
2021/04/11 02:11:45;;;;;;;0.50;0.50;;;;;;;14.03;46.52;93540.25;5016605;28;20079;-55
2021/04/11 02:14:11;;;;;;;0.40;0.40;;;;;;;14.02;46.55;93543.94;5017132;28;20026;-56
2021/04/11 02:16:43;;;;;;;0.40;0.40;;;;;;;14.02;46.13;93541.31;5014027;28;20361;-54
2021/04/11 02:19:17;;;;;;;0.43;0.43;;;;;;;14.04;46.50;93541.09;5049940;28;20083;-56
2021/04/11 02:21:45;;;;;;;0.50;0.50;;;;;;;14.03;46.20;93545.53;5041782;28;20021;-55
2021/04/11 02:24:16;;;;;;;0.40;0.40;;;;;;;14.02;46.71;93539.47;5036823;28;20016;-56
2021/04/11 02:26:48;;;;;;;0.40;0.40;;;;;;;14.02;46.61;93536.03;5036489;28;20028;-56
2021/04/11 02:29:17;;;;;;;0.70;0.45;;;;;;;14.02;46.79;93539.47;5035572;28;20029;-56
2021/04/11 02:31:45;;;;;;;0.70;0.70;;;;;;;14.02;46.00;93531.56;5023360;28;20025;-56
2021/04/11 02:34:19;;;;;;;0.47;0.43;;;;;;;14.03;46.34;93535.00;5016683;28;20036;-55
2021/04/11 02:37:01;;;;;;;1.13;0.73;;;;;;;14.02;46.26;93531.56;5024218;28;20116;-56
2021/04/11 02:39:33;;;;;;;0.50;0.50;;;;;;;14.03;46.29;93532.38;5038138;28;20089;-56
2021/04/11 02:42:05;;;;;;;0.65;0.55;;;;;;;14.03;46.71;93529.75;5035936;28;20036;-56
2021/04/11 02:44:37;;;;;;;0.35;0.35;;;;;;;14.01;46.61;93521.28;5049672;28;20021;-56
2021/04/11 02:47:04;;;;;;;0.50;0.50;;;;;;;14.02;46.71;93518.44;5026168;28;20033;-55
2021/04/11 02:49:29;;;;;;;0.50;0.50;;;;;;;14.02;46.68;93518.44;5035486;28;20024;-55
2021/04/11 02:51:55;;;;;;;0.30;0.30;;;;;;;14.02;46.78;93521.06;5027107;28;20021;-56
2021/04/11 02:54:47;;;;;;;0.40;0.40;;;;;;;14.03;46.62;93519.22;5049704;28;20026;-55
2021/04/11 02:57:18;;;;;;;0.40;0.40;;;;;;;14.02;46.64;93523.69;5015303;28;20041;-56
2021/04/11 02:59:44;;;;;;;0.40;0.40;;;;;;;14.04;46.59;93520.03;4983467;28;20073;-56
2021/04/11 03:02:21;;;;;;;0.50;0.50;;;;;;;14.02;46.70;93518.44;4995624;28;20041;-55
2021/04/11 03:05:18;;;;;;;0.98;0.50;;;;;;;14.03;46.28;93519.22;5004116;28;20032;-55
2021/04/11 03:07:50;;;;;;;0.40;0.40;;;;;;;14.03;46.38;93516.59;4949946;28;20039;-55
2021/04/11 03:10:26;;;;;;;0.50;0.50;;;;;;;14.02;46.46;93505.28;4972255;28;20120;-56
2021/04/11 03:12:54;;;;;;;0.30;0.30;;;;;;;14.02;46.28;93502.63;4951213;28;20034;-55
2021/04/11 03:15:20;;;;;;;0.40;0.40;;;;;;;14.02;46.31;93505.28;4944614;28;20386;-56
2021/04/11 03:17:48;;;;;;;0.35;0.35;;;;;;;14.02;46.53;93504.47;4959243;28;20042;-55
2021/04/11 03:20:39;;;;;;;0.40;0.40;;;;;;;14.04;46.38;93504.25;4959863;28;20064;-55
2021/04/11 03:23:16;;;;;;;0.40;0.40;;;;;;;14.04;46.45;93504.25;4970837;28;20113;-56
2021/04/11 03:25:43;;;;;;;0.40;0.40;;;;;;;14.02;46.57;93505.28;4949972;28;20410;-56
2021/04/11 03:28:38;;;;;;;0.50;0.30;;;;;;;14.02;46.42;93502.63;4974800;28;20035;-56
2021/04/11 03:31:11;;;;;;;0.55;0.52;;;;;;;14.03;46.82;93498.19;4958758;28;20038;-53
2021/04/11 03:33:47;;;;;;;0.40;0.40;;;;;;;14.02;46.36;93500.00;4962806;28;20041;-56
2021/04/11 03:36:14;;;;;;;0.43;0.43;;;;;;;14.02;46.00;93501.84;4927593;29;20434;-54
2021/04/11 03:38:55;;;;;;;0.40;0.40;;;;;;;14.02;46.69;93497.38;4921528;29;20035;-56
2021/04/11 03:41:23;;;;;;;0.40;0.40;;;;;;;14.01;46.01;93498.38;4948922;28;20069;-56
2021/04/11 03:44:00;;;;;;;0.60;0.60;;;;;;;14.02;46.61;93501.84;4994747;28;20033;-56
2021/04/11 03:47:00;;;;;;;0.80;0.50;;;;;;;14.01;46.27;93498.38;5042071;28;20587;-55
2021/04/11 03:49:36;;;;;;;0.50;0.50;;;;;;;14.02;46.65;93496.59;5040477;28;20017;-56
2021/04/11 03:52:10;;;;;;;0.30;0.30;;;;;;;14.02;46.25;93502.63;5036993;28;20365;-55
2021/04/11 03:54:47;;;;;;;0.40;0.40;;;;;;;14.01;46.36;93494.97;4999711;28;20021;-56
2021/04/11 03:57:14;;;;;;;0.45;0.45;;;;;;;14.02;46.58;93500.00;5015562;28;20120;-56
2021/04/11 04:00:01;;;;;;;0.40;0.40;;;;;;;14.02;46.30;93496.59;5016141;28;20075;-56
2021/04/11 04:02:26;;;;;;;0.57;0.57;;;;;;;14.02;46.60;93505.28;5033771;28;20025;-54
2021/04/11 04:04:59;;;;;;;0.40;0.40;;;;;;;14.02;46.29;93499.22;5032189;28;20138;-56
2021/04/11 04:07:25;;;;;;;0.40;0.40;;;;;;;14.02;46.75;93493.97;5015767;28;20091;-56
2021/04/11 04:10:03;;;;;;;0.45;0.40;;;;;;;14.01;46.56;93490.50;5031826;28;20025;-56
2021/04/11 04:12:44;;;;;;;0.47;0.47;;;;;;;14.02;46.62;93491.31;5034605;28;20025;-56
2021/04/11 04:15:12;;;;;;;0.30;0.30;;;;;;;14.02;46.44;93488.69;5051983;28;20278;-56
2021/04/11 04:17:47;;;;;;;0.30;0.30;;;;;;;14.01;46.35;93487.88;5032215;28;20033;-56
2021/04/11 04:20:49;;;;;;;0.38;0.38;;;;;;;14.01;46.46;93484.44;5031730;28;20032;-55
2021/04/11 04:23:33;;;;;;;0.32;0.32;;;;;;;14.01;46.25;93487.06;4994095;28;20049;-54
2021/04/11 04:26:46;;;;;;;0.40;0.40;;;;;;;14.02;46.21;93480.81;5010975;28;20070;-56
2021/04/11 04:29:46;;;;;;;0.40;0.40;;;;;;;14.01;46.32;93482.59;4921565;29;20052;-55
2021/04/11 04:32:26;;;;;;;0.20;0.20;;;;;;;14.01;46.50;93479.97;4898052;29;20047;-55
2021/04/11 04:35:01;;;;;;;0.52;0.50;;;;;;;14.01;46.48;93482.59;4914158;29;20043;-54
2021/04/11 04:37:55;;;;;;;0.47;0.47;;;;;;;14.01;46.25;93484.44;4898949;29;20036;-56
2021/04/11 04:40:47;;;;;;;0.47;0.47;;;;;;;14.00;46.40;93478.34;4916046;29;20040;-55
2021/04/11 04:43:38;;;;;;;0.73;0.70;;;;;;;14.02;46.12;93480.81;4900713;29;20064;-55
2021/04/11 04:46:17;;;;;;;0.68;0.50;;;;;;;14.00;46.59;93486.25;4879963;29;20102;-54
2021/04/11 04:48:53;;;;;;;0.30;0.30;;;;;;;14.01;46.66;93479.19;4860991;29;20172;-56
2021/04/11 04:51:35;;;;;;;0.45;0.45;;;;;;;14.01;46.64;93474.72;4863698;29;20040;-55
2021/04/11 04:54:09;;;;;;;0.40;0.40;;;;;;;14.01;46.46;93471.28;4865046;29;20025;-55
2021/04/11 04:56:38;;;;;;;0.40;0.40;;;;;;;14.01;46.14;93474.72;4879520;29;20041;-55
2021/04/11 04:59:11;;;;;;;;;;;;;;;14.02;46.64;93475.53;4893286;29;20050;-54
2021/04/11 05:01:52;;;;;;;0.40;0.30;;;;;;;14.01;46.29;93473.91;4951816;29;20413;-54
2021/04/11 05:04:22;;;;;;;0.63;0.50;;;;;;;14.01;46.57;93476.56;4949225;29;20031;-56
2021/04/11 05:06:51;;;;;;;0.52;0.52;;;;;;;14.00;46.64;93473.09;4965991;28;20097;-55
2021/04/11 05:09:28;;;;;;;0.55;0.55;;;;;;;14.01;46.19;93469.47;4959192;28;20026;-55
2021/04/11 05:12:01;;;;;;;0.47;0.43;;;;;;;14.01;46.24;93472.09;4978047;28;20413;-55
2021/04/11 05:14:39;;;;;;;0.20;0.20;;;;;;;14.01;46.50;93473.91;4993553;28;20038;-55
2021/04/11 05:17:09;;;;;;;0.50;0.50;;;;;;;14.01;46.63;93479.97;4978263;28;20481;-55
2021/04/11 05:19:50;;;;;;;0.50;0.50;;;;;;;14.00;46.18;93470.47;4975870;28;20045;-55
2021/04/11 05:22:38;;;;;;;0.30;0.30;;;;;;;14.01;46.70;93477.34;4972360;28;20041;-56
2021/04/11 05:25:20;;;;;;;0.30;0.30;;;;;;;14.01;46.56;93479.19;5034858;28;20078;-54
2021/04/11 05:28:08;;;;;;;0.40;0.40;;;;;;;14.01;46.47;93481.81;5018278;28;20048;-56
2021/04/11 05:30:39;;;;;;;0.40;0.40;;;;;;;14.01;46.53;93482.59;5036102;28;20052;-54
2021/04/11 05:33:20;;;;;;;0.30;0.30;;;;;;;14.01;46.37;93482.59;5021669;28;20384;-55
2021/04/11 05:36:00;;;;;;;0.30;0.30;;;;;;;14.02;46.60;93480.81;5037565;28;20039;-55
2021/04/11 05:38:30;;;;;;;;;;;;;;;14.01;46.65;93490.50;5038186;28;20024;-55
2021/04/11 05:41:08;;;;;;;0.63;0.60;;;;;;;14.01;46.40;93490.50;5054371;28;19919;-56
2021/04/11 05:44:04;;;;;;;0.68;0.68;;;;;;;14.02;46.48;93497.38;5018207;28;20025;-55
2021/04/11 05:46:33;;;;;;;0.40;0.40;;;;;;;14.01;46.53;93493.13;4999746;28;20230;-54
2021/04/11 05:49:19;;;;;;;0.20;0.20;;;;;;;14.01;46.37;93492.34;5014676;28;20052;-55
2021/04/11 05:51:59;;;;;;;0.40;0.40;;;;;;;14.02;46.22;93500.00;5014219;28;20053;-55
2021/04/11 05:54:40;;;;;;;0.30;0.30;;;;;;;14.01;46.50;93498.38;5016875;28;20120;-55
2021/04/11 05:57:42;;;;;;;0.73;0.40;;;;;;;14.01;46.40;93498.38;5016256;28;20037;-55
2021/04/11 06:00:46;;;;;;;0.63;0.50;;;;;;;14.01;46.21;93498.38;4957594;28;20066;-56
2021/04/11 06:03:18;;;;;;;0.40;0.40;;;;;;;14.02;46.79;93502.63;4934668;29;20047;-55
2021/04/11 06:06:17;;;;;;;0.50;0.50;;;;;;;14.01;46.47;93506.28;4903580;29;20488;-55
2021/04/11 06:08:57;;;;;;;0.40;0.40;;;;;;;14.01;46.36;93505.50;4917010;29;20032;-56
2021/04/11 06:11:45;;;;;;;0.50;0.50;;;;;;;14.01;46.37;93505.50;4919840;29;20080;-56
2021/04/11 06:14:31;;;;;;;0.50;0.50;;;;;;;14.00;46.32;93499.41;4930668;29;20031;-55
2021/04/11 06:17:12;;;;;;;0.85;0.38;;;;;;;14.02;46.71;93502.63;4909268;29;20040;-55
2021/04/11 06:19:47;;;;;;;0.50;0.50;;;;;;;14.02;46.45;93513.16;4914206;29;20599;-55
2021/04/11 06:22:30;;;;;;;0.75;0.55;;;;;;;14.02;46.43;93507.09;4934652;29;20119;-51
2021/04/11 06:25:19;;;;;;;0.50;0.50;;;;;;;14.01;46.27;93508.91;4928509;29;20035;-55
2021/04/11 06:28:05;;;;;;;0.52;0.52;;;;;;;14.02;46.68;93513.16;4917881;29;20039;-55
2021/04/11 06:31:06;;;;;;;0.47;0.47;;;;;;;14.02;46.47;93518.44;4945673;29;20041;-55
2021/04/11 06:34:04;;;;;;;0.57;0.45;;;;;;;14.01;46.72;93514.16;4914776;29;20139;-56
2021/04/11 06:36:41;;;;;;;0.55;0.40;;;;;;;14.01;46.42;93511.53;4932280;28;20045;-55
2021/04/11 06:39:25;;;;;;;0.50;0.50;;;;;;;14.02;46.74;93513.16;4959548;28;20049;-55
2021/04/11 06:41:58;;;;;;;0.35;0.35;;;;;;;14.00;46.71;93512.56;4964247;28;20120;-55
2021/04/11 06:44:50;;;;;;;0.30;0.30;;;;;;;14.02;46.81;93513.16;4991098;28;20094;-55
2021/04/11 06:47:34;;;;;;;0.35;0.35;;;;;;;14.01;46.35;93506.28;4991222;28;20064;-55
2021/04/11 06:50:37;;;;;;;0.30;0.30;;;;;;;14.02;46.28;93510.53;4974628;28;20022;-54
2021/04/11 06:53:05;;;;;;;0.45;0.45;;;;;;;14.01;46.21;93506.28;4990589;28;20073;-54
2021/04/11 06:55:53;;;;;;;0.40;0.40;;;;;;;14.03;46.79;93508.69;4990796;28;20085;-55
2021/04/11 06:58:21;;;;;;;0.40;0.40;;;;;;;14.04;46.36;93509.53;4959495;28;20569;-55
2021/04/11 07:01:14;;;;;;;0.40;0.40;;;;;;;13.99;46.41;93507.50;4974370;28;20038;-55
2021/04/11 07:04:04;;;;;;;0.30;0.30;;;;;;;13.97;46.67;93509.53;4980099;28;20030;-54
2021/04/11 07:07:00;;;;;;;0.55;0.55;;;;;;;13.95;46.45;93512.38;4967573;28;20034;-55
2021/04/11 07:09:43;;;;;;;0.70;0.50;;;;;;;13.95;46.51;93516.81;4961837;28;20026;-55
2021/04/11 07:12:27;;;;;;;0.30;0.30;;;;;;;13.94;46.68;93516.03;4991214;28;20441;-55
2021/04/11 07:15:33;;;;;;;0.45;0.45;;;;;;;13.96;46.42;93511.34;5047566;28;20033;-54
2021/04/11 07:18:19;;;;;;;0.40;0.40;;;;;;;13.95;46.41;93522.91;5026711;28;20033;-51
2021/04/11 07:21:22;;;;;;;0.50;0.50;;;;;;;13.95;46.67;93520.28;5063167;28;20039;-55
2021/04/11 07:24:26;;;;;;;0.73;0.40;;;;;;;13.95;46.76;93522.91;5047441;28;20024;-55
2021/04/11 07:27:10;;;;;;;0.25;0.25;;;;;;;13.96;46.77;93528.97;5043439;28;20044;-54
2021/04/11 07:29:49;;;;;;;0.40;0.40;;;;;;;13.96;46.71;93532.41;5058212;28;20039;-55
2021/04/11 07:32:39;;;;;;;0.30;0.30;;;;;;;13.96;46.61;93526.34;5026202;28;20500;-55
2021/04/11 07:35:06;;;;;;;;;;;;;;;13.95;46.41;93525.53;5036970;28;20116;-55
2021/04/11 07:37:47;;;;;;;0.75;0.50;;;;;;;13.95;46.47;93522.91;5043943;28;20007;-55
2021/04/11 07:40:44;;;;;;;0.40;0.40;;;;;;;13.96;46.28;93527.13;5046061;28;20034;-55
2021/04/11 07:43:21;;;;;;;0.50;0.50;;;;;;;13.96;46.28;93524.50;5029634;28;20396;-52
2021/04/11 07:46:05;;;;;;;0.32;0.32;;;;;;;13.95;46.03;93530.81;5043522;28;20021;-54
2021/04/11 07:48:55;;;;;;;0.47;0.47;;;;;;;13.96;46.41;93526.34;5047534;28;20095;-55
2021/04/11 07:51:58;;;;;;;1.42;0.60;;;;;;;13.95;46.29;93533.44;5052922;28;20039;-53
2021/04/11 07:54:42;;;;;;;0.68;0.60;;;;;;;13.95;46.36;93527.34;5038891;28;20021;-55
2021/04/11 07:57:09;;;;;;;0.40;0.40;;;;;;;13.96;46.26;93536.84;5043041;28;20439;-55
2021/04/11 08:00:21;;;;;;;0.30;0.30;;;;;;;13.94;45.91;93531.81;5043268;28;20033;-55
2021/04/11 08:03:25;;;;;;;0.50;0.50;;;;;;;13.94;46.36;93529.19;5010669;28;20143;-55
2021/04/11 08:06:15;;;;;;;0.52;0.52;;;;;;;13.94;46.17;93531.81;4998773;28;20030;-55
2021/04/11 08:09:06;;;;;;;0.50;0.50;;;;;;;13.95;46.15;93530.81;5002624;28;20111;-55
2021/04/11 08:11:40;;;;;;;0.93;0.60;;;;;;;13.93;46.14;93522.28;4995373;28;20041;-55
2021/04/11 08:14:08;;;;;;;0.52;0.52;;;;;;;13.94;46.24;93530.97;4998639;28;20045;-54
2021/04/11 08:17:13;;;;;;;0.55;0.55;;;;;;;13.94;45.94;93530.97;4994849;28;20065;-56
2021/04/11 08:19:44;;;;;;;0.50;0.50;;;;;;;13.94;46.24;93520.47;4998362;28;20029;-54
2021/04/11 08:22:12;;;;;;;1.90;0.38;;;;;;;13.93;46.09;93519.66;5010185;28;20033;-55
2021/04/11 08:24:57;;;;;;;0.40;0.40;;;;;;;13.93;46.00;93532.03;4994012;28;20068;-55
2021/04/11 08:28:02;;;;;;;0.50;0.50;;;;;;;13.93;46.34;93538.06;4996236;28;20161;-54
2021/04/11 08:30:47;;;;;;;0.50;0.50;;;;;;;13.94;45.83;93529.19;4952595;28;20045;-55
2021/04/11 08:33:55;;;;;;;0.52;0.52;;;;;;;13.93;46.21;93532.03;4974995;28;20034;-54
2021/04/11 08:36:59;;;;;;;0.70;0.70;;;;;;;13.92;46.06;93525.94;4918588;29;20035;-55
2021/04/11 08:39:44;;;;;;;0.65;0.65;;;;;;;13.93;46.20;93530.19;4934151;29;20319;-55
2021/04/11 08:42:20;;;;;;;0.50;0.50;;;;;;;13.93;46.09;93532.03;4921315;29;20046;-55
2021/04/11 08:45:29;;;;;;;0.47;0.40;;;;;;;13.92;46.05;93531.19;4920003;29;20063;-55
2021/04/11 08:48:28;;;;;;;0.45;0.45;;;;;;;13.92;45.71;93525.94;4935495;29;20036;-55
2021/04/11 08:51:19;;;;;;;0.47;0.47;;;;;;;13.92;46.19;93522.50;4915859;29;20035;-55
2021/04/11 08:54:15;;;;;;;0.50;0.50;;;;;;;13.92;45.63;93520.69;4880074;29;20049;-55
2021/04/11 08:56:49;;;;;;;0.40;0.40;;;;;;;13.95;46.04;93512.38;4860383;29;20490;-55
2021/04/11 08:59:25;;;;;;;2.25;0.73;;;;;;;14.07;45.75;93519.63;4863590;29;20052;-55
2021/04/11 09:02:00;;;;;;;1.95;0.60;;;;;;;14.10;46.01;93519.19;4879301;29;20038;-55
2021/04/11 09:05:00;;;;;;;1.30;0.90;;;;;;;14.09;45.83;93514.94;4879041;29;20516;-56
2021/04/11 09:08:05;;;;;;;0.60;0.60;;;;;;;14.09;45.89;93520.19;4860165;29;20048;-55
2021/04/11 09:10:54;;;;;;;2.90;1.20;;;;;;;14.08;45.85;93521.25;4860511;29;20049;-56
2021/04/11 09:14:24;;;;;;;1.67;0.70;;;;;;;14.08;45.83;93522.03;4916727;29;20036;-56
2021/04/11 09:17:11;;;;;;;1.08;0.65;;;;;;;14.08;45.70;93522.03;4860643;29;20042;-55
2021/04/11 09:20:05;;;;;;;1.75;0.60;;;;;;;14.09;45.14;93526.28;4859547;29;20132;-56
2021/04/11 09:23:16;;;;;;;1.23;0.52;;;;;;;14.09;45.22;93518.41;4841542;29;20501;-55
2021/04/11 09:25:45;;;;;;;2.00;0.70;;;;;;;14.09;45.24;93509.69;4853333;29;20128;-56
2021/04/11 09:28:30;;;;;;;2.28;0.73;;;;;;;14.09;45.45;93517.56;4859197;29;20143;-55
2021/04/11 09:31:12;;;;;;;0.75;0.68;;;;;;;14.09;45.38;93517.56;4872176;29;20041;-55
2021/04/11 09:34:14;;;;;;;3.47;0.80;;;;;;;14.06;44.77;93521.47;4879337;29;20033;-56
2021/04/11 09:36:58;;;;;;;1.63;0.90;;;;;;;14.10;44.53;93519.19;4879202;29;20419;-56
2021/04/11 09:39:31;;;;;;;1.55;0.75;;;;;;;14.10;44.66;93519.19;4878016;29;21830;-54
2021/04/11 09:42:35;;;;;;;0.60;0.60;;;;;;;14.10;45.27;93519.19;4874791;29;20041;-56
2021/04/11 09:45:02;;;;;;;3.17;0.80;;;;;;;14.11;44.85;93524.25;4913214;29;20036;-56
2021/04/11 09:47:35;;;;;;;1.85;0.80;;;;;;;14.11;45.34;93523.44;4908106;29;20039;-56
2021/04/11 09:50:20;;;;;;;2.13;0.75;;;;;;;14.10;45.04;93519.19;4922028;29;20053;-56
2021/04/11 09:52:49;;;;;;;0.43;0.40;;;;;;;14.09;44.89;93512.31;4949668;28;20034;-55
2021/04/11 09:55:43;;;;;;;1.80;0.77;;;;;;;14.08;44.71;93514.16;5011437;28;20045;-56
2021/04/11 09:58:37;;;;;;;0.98;0.60;;;;;;;14.09;45.15;93518.41;4976986;28;20041;-57
2021/04/11 10:01:19;;;;;;;1.08;0.77;;;;;;;14.24;45.01;93518.13;5004717;28;20026;-58
2021/04/11 10:04:07;;;;;;;1.05;0.77;;;;;;;14.17;45.21;93517.34;5048671;28;20230;-55
2021/04/11 10:07:02;;;;;;;1.30;0.95;;;;;;;14.17;44.82;93507.63;5048186;28;20082;-55
2021/04/11 10:09:48;;;;;;;1.02;0.90;;;;;;;14.11;45.45;93502.41;5060605;28;20040;-54
2021/04/11 10:12:32;;;;;;;1.58;1.00;;;;;;;14.06;45.20;93505.66;5034144;28;20048;-54
2021/04/11 10:15:12;;;;;;;1.00;0.63;;;;;;;14.05;45.63;93505.84;5045036;28;20032;-55
2021/04/11 10:17:56;;;;;;;2.92;0.77;;;;;;;14.04;45.52;93504.25;5043286;28;20087;-54
2021/04/11 10:20:55;;;;;;;0.68;0.60;;;;;;;14.03;45.88;93506.06;5041008;28;20041;-55
2021/04/11 10:23:53;;;;;;;0.93;0.70;;;;;;;14.01;45.60;93498.38;5009836;28;20126;-55
2021/04/11 10:26:20;;;;;;;0.60;0.53;;;;;;;14.00;46.15;93498.59;4996435;28;20169;-54
2021/04/11 10:29:03;;;;;;;2.67;0.68;;;;;;;14.01;45.87;93495.75;4980466;28;20069;-59
2021/04/11 10:31:45;;;;;;;0.60;0.50;;;;;;;14.10;45.64;93495.53;4995346;28;20083;-60
2021/04/11 10:34:21;;;;;;;2.50;0.73;;;;;;;14.12;45.19;93496.94;4994279;28;20038;-53
2021/04/11 10:36:50;;;;;;;2.10;0.80;;;;;;;14.08;45.21;93484.41;4991204;28;20050;-55
2021/04/11 10:39:53;;;;;;;2.17;0.90;;;;;;;14.04;45.60;93488.47;4993013;28;20033;-55
2021/04/11 10:42:22;;;;;;;0.93;0.70;;;;;;;14.01;45.64;93482.59;5006967;28;20022;-54
2021/04/11 10:45:08;;;;;;;;;;;;;;;14.01;45.66;93481.81;4995242;28;20104;-54
2021/04/11 10:50:42;;;;;;;4.35;1.00;;;;;;;13.99;46.07;93470.69;5010480;28;20037;-54
2021/04/11 10:53:33;;;;;;;1.58;0.90;;;;;;;13.99;46.01;93478.56;4993111;28;20046;-55
2021/04/11 10:56:05;;;;;;;2.15;0.95;;;;;;;13.99;46.05;93478.56;4990229;28;20169;-55
2021/04/11 10:59:11;;;;;;;1.58;0.70;;;;;;;13.99;46.20;93470.69;4955498;28;20112;-58
2021/04/11 11:02:10;;;;;;;0.60;0.60;;;;;;;13.97;45.60;93468.25;5030822;28;20026;-55
2021/04/11 11:05:16;;;;;;;1.00;0.50;;;;;;;13.97;45.99;93468.25;5025741;28;20034;-55
2021/04/11 11:08:05;;;;;;;2.35;0.80;;;;;;;13.97;45.54;93460.38;4985595;28;20046;-55
2021/04/11 11:11:14;;;;;;;0.50;0.50;;;;;;;13.97;46.21;93462.22;4988772;28;20038;-55
2021/04/11 11:14:27;;;;;;;0.75;0.60;;;;;;;13.96;45.85;93458.75;4990627;28;20189;-55
2021/04/11 11:17:30;;;;;;;0.57;0.57;;;;;;;13.97;46.14;93457.75;4926443;29;20115;-54
2021/04/11 11:20:36;;;;;;;0.65;0.65;;;;;;;13.97;45.75;93462.22;4930339;29;20035;-53
2021/04/11 11:23:19;;;;;;;0.57;0.57;;;;;;;13.95;45.64;93459.78;4924284;29;20033;-51
2021/04/11 11:26:03;;;;;;;1.08;0.60;;;;;;;13.96;46.08;93450.88;4931724;29;20064;-52
2021/04/11 11:28:43;;;;;;;2.20;0.60;;;;;;;13.96;45.68;93452.69;4910536;29;20047;-54
2021/04/11 11:31:11;;;;;;;2.05;0.90;;;;;;;13.95;45.80;93438.75;4900438;29;20044;-54
2021/04/11 11:34:14;;;;;;;1.38;0.85;;;;;;;13.95;45.86;93444.00;4914345;29;20024;-54
2021/04/11 11:36:46;;;;;;;0.52;0.50;;;;;;;13.96;45.44;93436.91;4930309;29;20801;-55
2021/04/11 11:39:29;;;;;;;1.10;0.60;;;;;;;13.96;45.93;93442.19;4919393;29;20035;-55
2021/04/11 11:42:02;;;;;;;1.02;0.70;;;;;;;13.95;45.76;93438.75;4874294;29;20055;-54
2021/04/11 11:44:37;;;;;;;0.60;0.60;;;;;;;13.94;45.60;93437.13;4865668;29;20036;-55
2021/04/11 11:47:24;;;;;;;0.90;0.60;;;;;;;13.95;45.68;93441.38;4892413;29;20039;-54
2021/04/11 11:50:16;;;;;;;1.25;0.65;;;;;;;13.95;45.95;93435.28;4916427;28;20543;-55
2021/04/11 11:52:56;;;;;;;0.70;0.70;;;;;;;13.95;45.59;93432.66;5035500;28;20398;-55
2021/04/11 11:55:42;;;;;;;0.60;0.60;;;;;;;13.94;45.66;93429.25;5021066;28;20052;-54
2021/04/11 11:58:27;;;;;;;2.42;0.65;;;;;;;13.95;45.91;93430.03;5050575;28;20056;-55
2021/04/11 12:01:01;;;;;;;0.50;0.50;;;;;;;13.94;45.63;93421.34;5015426;28;20104;-55
2021/04/11 12:03:36;;;;;;;0.85;0.63;;;;;;;13.95;45.78;93416.88;5016216;28;20029;-54
2021/04/11 12:06:05;;;;;;;0.55;0.55;;;;;;;13.96;46.12;93421.13;5040848;28;20026;-53
2021/04/11 12:09:08;;;;;;;0.40;0.40;;;;;;;13.95;45.40;93420.34;5027614;28;20032;-54
2021/04/11 12:11:52;;;;;;;1.10;0.50;;;;;;;13.94;45.95;93423.97;5047354;28;20056;-55
2021/04/11 12:14:48;;;;;;;0.40;0.40;;;;;;;13.94;45.54;93431.88;5055189;28;20029;-54
2021/04/11 12:17:58;;;;;;;0.50;0.50;;;;;;;13.94;45.90;93418.72;5050304;28;20032;-54
2021/04/11 12:20:51;;;;;;;0.60;0.60;;;;;;;13.94;45.53;93418.72;5029417;28;20552;-55
2021/04/11 12:23:27;;;;;;;0.47;0.47;;;;;;;13.95;45.62;93417.72;4994355;28;20048;-54
2021/04/11 12:26:11;;;;;;;0.65;0.60;;;;;;;13.94;45.56;93415.25;5002547;28;20509;-55
2021/04/11 12:28:39;;;;;;;0.75;0.75;;;;;;;13.94;45.66;93408.19;5014064;28;20029;-54
2021/04/11 12:31:30;;;;;;;0.40;0.40;;;;;;;13.95;45.76;93411.63;5015564;28;20261;-54
2021/04/11 12:34:39;;;;;;;0.73;0.47;;;;;;;13.95;45.97;93409.00;5013051;28;20033;-56
2021/04/11 12:37:16;;;;;;;0.60;0.50;;;;;;;13.94;45.81;93415.25;5024635;28;20049;-53
2021/04/11 12:40:07;;;;;;;0.45;0.40;;;;;;;13.94;45.76;93402.94;5033187;28;20084;-55
2021/04/11 12:43:19;;;;;;;1.17;0.73;;;;;;;13.94;45.68;93402.94;5028763;28;20481;-55
2021/04/11 12:46:09;;;;;;;0.82;0.63;;;;;;;13.93;45.42;93403.94;4954217;28;20039;-54